createdAt,value
2017-06-20T00:00:40.303Z,0
2017-06-20T00:01:40.327Z,0
2017-06-20T00:02:40.364Z,0
2017-06-20T00:03:40.121Z,0
2017-06-20T00:04:40.662Z,0
2017-06-20T00:05:40.450Z,0
2017-06-20T00:06:40.480Z,0
2017-06-20T00:07:39.888Z,0
2017-06-20T00:08:40.538Z,0
2017-06-20T00:09:40.569Z,0
2017-06-20T00:10:40.283Z,0
2017-06-20T00:11:40.628Z,0
2017-06-20T00:12:40.666Z,0
2017-06-20T00:13:40.369Z,0
2017-06-20T00:14:40.410Z,0
2017-06-20T00:15:40.441Z,0
2017-06-20T00:16:40.792Z,0
2017-06-20T00:17:40.504Z,0
2017-06-20T00:18:40.213Z,0
2017-06-20T00:19:40.238Z,0
2017-06-20T00:20:40.619Z,0
2017-06-20T00:21:40.624Z,0
2017-06-20T00:22:40.963Z,0
2017-06-20T00:23:40.686Z,0
2017-06-20T00:24:40.715Z,0
2017-06-20T00:25:41.055Z,0
2017-06-20T00:26:40.760Z,0
2017-06-20T00:27:41.117Z,0
2017-06-20T00:28:41.141Z,0
2017-06-20T00:29:40.548Z,0
2017-06-20T00:30:40.888Z,0
2017-06-20T00:31:40.925Z,0
2017-06-20T00:32:40.947Z,0
2017-06-20T00:33:41.303Z,0
2017-06-20T00:34:41.011Z,0
2017-06-20T00:35:41.351Z,0
2017-06-20T00:36:41.377Z,0
2017-06-20T00:37:41.417Z,0
2017-06-20T00:38:41.134Z,0
2017-06-20T00:39:41.474Z,0
2017-06-20T00:40:41.499Z,0
2017-06-20T00:41:41.221Z,0
2017-06-20T00:42:41.565Z,0
2017-06-20T00:43:41.279Z,0
2017-06-20T00:44:40.999Z,0
2017-06-20T00:45:41.597Z,0
2017-06-20T00:46:41.373Z,0
2017-06-20T00:47:41.405Z,0
2017-06-20T00:48:41.430Z,0
2017-06-20T00:49:41.143Z,0
2017-06-20T00:50:41.740Z,0
2017-06-20T00:51:41.521Z,0
2017-06-20T00:52:41.550Z,0
2017-06-20T00:53:41.899Z,0
2017-06-20T00:54:41.615Z,0
2017-06-20T00:55:41.585Z,0
2017-06-20T00:56:41.989Z,0
2017-06-20T00:57:41.702Z,0
2017-06-20T00:58:41.102Z,0
2017-06-20T00:59:42.104Z,0
2017-06-20T01:00:41.731Z,0
2017-06-20T01:01:42.133Z,0
2017-06-20T01:02:42.162Z,0
2017-06-20T01:03:42.195Z,0
2017-06-20T01:04:41.912Z,0
2017-06-20T01:05:42.197Z,0
2017-06-20T01:06:41.968Z,0
2017-06-20T01:07:42.337Z,0
2017-06-20T01:08:42.035Z,0
2017-06-20T01:09:42.064Z,0
2017-06-20T01:10:42.344Z,0
2017-06-20T01:11:42.433Z,0
2017-06-20T01:12:42.157Z,0
2017-06-20T01:13:42.182Z,0
2017-06-20T01:14:41.894Z,0
2017-06-20T01:15:42.489Z,0
2017-06-20T01:16:42.584Z,0
2017-06-20T01:17:42.614Z,0
2017-06-20T01:18:42.647Z,0
2017-06-20T01:19:42.051Z,0
2017-06-20T01:20:42.328Z,0
2017-06-20T01:21:42.420Z,0
2017-06-20T01:22:42.759Z,0
2017-06-20T01:23:42.798Z,0
2017-06-20T01:24:42.507Z,0
2017-06-20T01:25:42.796Z,0
2017-06-20T01:26:42.881Z,0
2017-06-20T01:27:42.603Z,0
2017-06-20T01:28:42.939Z,0
2017-06-20T01:29:42.688Z,0
2017-06-20T01:30:42.957Z,0
2017-06-20T01:31:42.721Z,0
2017-06-20T01:32:42.443Z,0
2017-06-20T01:33:43.098Z,0
2017-06-20T01:34:42.924Z,0
2017-06-20T01:35:43.400Z,0
2017-06-20T01:36:42.869Z,0
2017-06-20T01:37:43.211Z,0
2017-06-20T01:38:42.931Z,0
2017-06-20T01:39:42.646Z,0
2017-06-20T01:40:43.237Z,0
2017-06-20T01:41:43.334Z,0
2017-06-20T01:42:43.042Z,0
2017-06-20T01:43:43.391Z,0
2017-06-20T01:44:43.421Z,0
2017-06-20T01:45:43.390Z,0
2017-06-20T01:46:43.482Z,0
2017-06-20T01:47:43.491Z,0
2017-06-20T01:48:43.547Z,0
2017-06-20T01:49:43.260Z,0
2017-06-20T01:50:43.537Z,0
2017-06-20T01:51:43.327Z,0
2017-06-20T01:52:43.343Z,0
2017-06-20T01:53:43.372Z,0
2017-06-20T01:54:43.722Z,0
2017-06-20T01:55:43.693Z,0
2017-06-20T01:56:43.458Z,0
2017-06-20T01:57:43.499Z,0
2017-06-20T01:58:43.524Z,0
2017-06-20T01:59:43.876Z,0
2017-06-20T02:00:44.150Z,0
2017-06-20T02:01:43.654Z,0
2017-06-20T02:02:43.639Z,0
2017-06-20T02:03:43.991Z,0
2017-06-20T02:04:43.428Z,0
2017-06-20T02:05:44.292Z,0
2017-06-20T02:06:44.074Z,0
2017-06-20T02:07:43.476Z,0
2017-06-20T02:08:44.140Z,0
2017-06-20T02:09:43.541Z,0
2017-06-20T02:10:44.137Z,0
2017-06-20T02:11:44.218Z,0
2017-06-20T02:12:43.630Z,0
2017-06-20T02:13:44.284Z,0
2017-06-20T02:14:44.001Z,0
2017-06-20T02:15:44.606Z,0
2017-06-20T02:16:44.379Z,0
2017-06-20T02:17:44.095Z,0
2017-06-20T02:18:44.116Z,0
2017-06-20T02:19:44.144Z,0
2017-06-20T02:20:44.742Z,0
2017-06-20T02:21:44.528Z,0
2017-06-20T02:22:44.557Z,0
2017-06-20T02:23:44.268Z,0
2017-06-20T02:24:44.613Z,0
2017-06-20T02:25:44.902Z,0
2017-06-20T02:26:44.355Z,0
2017-06-20T02:27:44.699Z,0
2017-06-20T02:28:44.734Z,0
2017-06-20T02:29:44.762Z,0
2017-06-20T02:30:45.037Z,0
2017-06-20T02:31:44.502Z,0
2017-06-20T02:32:44.852Z,0
2017-06-20T02:33:44.560Z,0
2017-06-20T02:34:44.909Z,0
2017-06-20T02:35:45.190Z,0
2017-06-20T02:36:44.967Z,0
2017-06-20T02:37:44.689Z,0
2017-06-20T02:38:44.405Z,0
2017-06-20T02:39:45.058Z,0
2017-06-20T02:40:44.470Z,0
2017-06-20T02:41:44.800Z,0
2017-06-20T02:42:44.832Z,0
2017-06-20T02:43:44.865Z,0
2017-06-20T02:44:45.214Z,0
2017-06-20T02:45:45.235Z,0
2017-06-20T02:46:45.269Z,0
2017-06-20T02:47:45.289Z,0
2017-06-20T02:48:45.324Z,0
2017-06-20T02:49:45.042Z,0
2017-06-20T02:50:44.759Z,0
2017-06-20T02:51:45.675Z,0
2017-06-20T02:52:45.128Z,0
2017-06-20T02:53:45.478Z,0
2017-06-20T02:54:45.507Z,0
2017-06-20T02:55:45.537Z,0
2017-06-20T02:56:45.807Z,0
2017-06-20T02:57:45.593Z,0
2017-06-20T02:58:45.635Z,0
2017-06-20T02:59:45.662Z,0
2017-06-20T03:00:45.371Z,0
2017-06-20T03:01:45.658Z,0
2017-06-20T03:02:45.743Z,4
2017-06-20T03:03:45.462Z,4
2017-06-20T03:04:45.169Z,4
2017-06-20T03:05:44.900Z,4
2017-06-20T03:06:46.111Z,4
2017-06-20T03:07:45.572Z,4
2017-06-20T03:08:45.606Z,8
2017-06-20T03:09:45.635Z,4
2017-06-20T03:10:45.977Z,4
2017-06-20T03:11:46.251Z,8
2017-06-20T03:12:45.721Z,8
2017-06-20T03:13:46.065Z,8
2017-06-20T03:14:46.094Z,12
2017-06-20T03:15:46.127Z,12
2017-06-20T03:16:46.100Z,12
2017-06-20T03:17:45.556Z,16
2017-06-20T03:18:46.213Z,16
2017-06-20T03:19:46.238Z,20
2017-06-20T03:20:46.283Z,20
2017-06-20T03:21:45.936Z,24
2017-06-20T03:22:46.030Z,24
2017-06-20T03:23:46.049Z,24
2017-06-20T03:24:46.083Z,28
2017-06-20T03:25:46.428Z,28
2017-06-20T03:26:46.388Z,28
2017-06-20T03:27:46.170Z,36
2017-06-20T03:28:46.204Z,36
2017-06-20T03:29:46.542Z,36
2017-06-20T03:30:46.263Z,40
2017-06-20T03:31:46.548Z,44
2017-06-20T03:32:46.321Z,48
2017-06-20T03:33:46.035Z,48
2017-06-20T03:34:46.690Z,48
2017-06-20T03:35:46.720Z,56
2017-06-20T03:36:46.375Z,56
2017-06-20T03:37:46.465Z,60
2017-06-20T03:38:46.814Z,60
2017-06-20T03:39:46.839Z,64
2017-06-20T03:40:46.868Z,68
2017-06-20T03:41:47.153Z,72
2017-06-20T03:42:46.937Z,76
2017-06-20T03:43:46.963Z,80
2017-06-20T03:44:46.991Z,84
2017-06-20T03:45:47.013Z,88
2017-06-20T03:46:47.297Z,92
2017-06-20T03:47:46.758Z,92
2017-06-20T03:48:46.795Z,100
2017-06-20T03:49:46.827Z,100
2017-06-20T03:50:46.853Z,104
2017-06-20T03:51:46.820Z,112
2017-06-20T03:52:47.232Z,112
2017-06-20T03:53:47.250Z,120
2017-06-20T03:54:46.975Z,128
2017-06-20T03:55:47.310Z,132
2017-06-20T03:56:46.985Z,144
2017-06-20T03:57:46.433Z,152
2017-06-20T03:58:47.399Z,164
2017-06-20T03:59:47.436Z,168
2017-06-20T04:00:47.147Z,172
2017-06-20T04:01:47.745Z,172
2017-06-20T04:02:47.201Z,176
2017-06-20T04:03:47.231Z,180
2017-06-20T04:04:47.269Z,188
2017-06-20T04:05:47.599Z,188
2017-06-20T04:06:47.885Z,196
2017-06-20T04:07:47.355Z,204
2017-06-20T04:08:47.704Z,220
2017-06-20T04:09:47.413Z,228
2017-06-20T04:10:47.755Z,236
2017-06-20T04:11:47.726Z,232
2017-06-20T04:12:47.816Z,232
2017-06-20T04:13:47.842Z,228
2017-06-20T04:14:47.877Z,228
2017-06-20T04:15:47.910Z,232
2017-06-20T04:16:47.874Z,236
2017-06-20T04:17:47.972Z,240
2017-06-20T04:18:47.999Z,248
2017-06-20T04:19:48.025Z,248
2017-06-20T04:20:47.745Z,252
2017-06-20T04:21:48.032Z,260
2017-06-20T04:22:48.123Z,260
2017-06-20T04:23:47.852Z,264
2017-06-20T04:24:47.855Z,268
2017-06-20T04:25:48.204Z,276
2017-06-20T04:26:48.173Z,280
2017-06-20T04:27:47.639Z,284
2017-06-20T04:28:48.291Z,288
2017-06-20T04:29:48.033Z,288
2017-06-20T04:30:48.352Z,292
2017-06-20T04:31:48.631Z,296
2017-06-20T04:32:48.410Z,300
2017-06-20T04:33:47.816Z,304
2017-06-20T04:34:47.844Z,308
2017-06-20T04:35:48.181Z,312
2017-06-20T04:36:48.773Z,316
2017-06-20T04:37:48.554Z,324
2017-06-20T04:38:48.591Z,324
2017-06-20T04:39:48.620Z,328
2017-06-20T04:40:48.012Z,336
2017-06-20T04:41:48.930Z,336
2017-06-20T04:42:48.383Z,348
2017-06-20T04:43:48.775Z,352
2017-06-20T04:44:48.453Z,356
2017-06-20T04:45:48.174Z,360
2017-06-20T04:46:48.446Z,368
2017-06-20T04:47:48.534Z,376
2017-06-20T04:48:48.575Z,380
2017-06-20T04:49:48.596Z,384
2017-06-20T04:50:48.946Z,388
2017-06-20T04:51:48.914Z,396
2017-06-20T04:52:49.007Z,396
2017-06-20T04:53:49.033Z,400
2017-06-20T04:54:49.057Z,404
2017-06-20T04:55:48.778Z,412
2017-06-20T04:56:49.375Z,416
2017-06-20T04:57:49.154Z,420
2017-06-20T04:58:49.180Z,424
2017-06-20T04:59:49.217Z,428
2017-06-20T05:00:49.234Z,432
2017-06-20T05:01:49.256Z,436
2017-06-20T05:02:49.295Z,440
2017-06-20T05:03:48.738Z,448
2017-06-20T05:04:49.356Z,448
2017-06-20T05:05:49.385Z,456
2017-06-20T05:06:49.358Z,460
2017-06-20T05:07:49.447Z,464
2017-06-20T05:08:49.467Z,468
2017-06-20T05:09:49.495Z,472
2017-06-20T05:10:49.214Z,476
2017-06-20T05:11:49.818Z,476
2017-06-20T05:12:49.283Z,480
2017-06-20T05:13:49.625Z,480
2017-06-20T05:14:49.649Z,484
2017-06-20T05:15:49.686Z,488
2017-06-20T05:16:49.962Z,492
2017-06-20T05:17:49.120Z,492
2017-06-20T05:18:49.761Z,496
2017-06-20T05:19:49.797Z,500
2017-06-20T05:20:49.518Z,508
2017-06-20T05:21:50.106Z,508
2017-06-20T05:22:49.267Z,512
2017-06-20T05:23:49.604Z,516
2017-06-20T05:24:49.945Z,520
2017-06-20T05:25:49.975Z,520
2017-06-20T05:26:49.895Z,520
2017-06-20T05:27:49.405Z,524
2017-06-20T05:28:50.064Z,524
2017-06-20T05:29:49.774Z,520
2017-06-20T05:30:49.809Z,520
2017-06-20T05:31:50.407Z,520
2017-06-20T05:32:49.558Z,524
2017-06-20T05:33:49.895Z,524
2017-06-20T05:34:50.247Z,524
2017-06-20T05:35:49.959Z,524
2017-06-20T05:36:50.554Z,528
2017-06-20T05:37:50.329Z,536
2017-06-20T05:38:50.356Z,536
2017-06-20T05:39:50.394Z,540
2017-06-20T05:40:50.498Z,540
2017-06-20T05:41:50.395Z,540
2017-06-20T05:42:50.484Z,540
2017-06-20T05:43:50.194Z,548
2017-06-20T05:44:50.542Z,548
2017-06-20T05:45:50.259Z,556
2017-06-20T05:46:50.479Z,560
2017-06-20T05:47:50.321Z,560
2017-06-20T05:48:50.716Z,564
2017-06-20T05:49:50.379Z,568
2017-06-20T05:50:50.414Z,568
2017-06-20T05:51:51.003Z,568
2017-06-20T05:52:50.468Z,572
2017-06-20T05:53:50.810Z,580
2017-06-20T05:54:50.842Z,580
2017-06-20T05:55:50.898Z,584
2017-06-20T05:56:51.152Z,584
2017-06-20T05:57:50.608Z,584
2017-06-20T05:58:50.637Z,588
2017-06-20T05:59:50.986Z,592
2017-06-20T06:00:51.009Z,596
2017-06-20T06:01:51.291Z,600
2017-06-20T06:02:51.073Z,600
2017-06-20T06:03:51.098Z,600
2017-06-20T06:04:50.825Z,604
2017-06-20T06:05:50.843Z,608
2017-06-20T06:06:51.084Z,612
2017-06-20T06:07:51.224Z,612
2017-06-20T06:08:50.938Z,616
2017-06-20T06:09:51.282Z,620
2017-06-20T06:10:51.311Z,620
2017-06-20T06:11:51.595Z,620
2017-06-20T06:12:51.052Z,628
2017-06-20T06:13:51.392Z,628
2017-06-20T06:14:50.807Z,632
2017-06-20T06:15:50.835Z,636
2017-06-20T06:16:51.431Z,640
2017-06-20T06:17:51.568Z,640
2017-06-20T06:18:50.913Z,640
2017-06-20T06:19:51.594Z,644
2017-06-20T06:20:51.623Z,644
2017-06-20T06:21:51.889Z,652
2017-06-20T06:22:51.669Z,656
2017-06-20T06:23:51.378Z,652
2017-06-20T06:24:51.727Z,656
2017-06-20T06:25:51.132Z,660
2017-06-20T06:26:52.033Z,664
2017-06-20T06:27:51.817Z,660
2017-06-20T06:28:51.540Z,664
2017-06-20T06:29:51.879Z,668
2017-06-20T06:30:51.604Z,672
2017-06-20T06:31:52.193Z,672
2017-06-20T06:32:51.649Z,676
2017-06-20T06:33:51.692Z,676
2017-06-20T06:34:52.023Z,680
2017-06-20T06:35:52.047Z,684
2017-06-20T06:36:52.332Z,680
2017-06-20T06:37:52.113Z,684
2017-06-20T06:38:52.147Z,684
2017-06-20T06:39:51.543Z,684
2017-06-20T06:40:52.201Z,688
2017-06-20T06:41:52.481Z,692
2017-06-20T06:42:52.281Z,688
2017-06-20T06:43:52.284Z,692
2017-06-20T06:44:51.694Z,692
2017-06-20T06:45:52.343Z,692
2017-06-20T06:46:52.323Z,688
2017-06-20T06:47:52.410Z,692
2017-06-20T06:48:51.814Z,696
2017-06-20T06:49:52.162Z,696
2017-06-20T06:50:52.272Z,696
2017-06-20T06:51:52.468Z,700
2017-06-20T06:52:52.246Z,704
2017-06-20T06:53:52.282Z,704
2017-06-20T06:54:52.303Z,708
2017-06-20T06:55:52.332Z,704
2017-06-20T06:56:52.932Z,704
2017-06-20T06:57:52.398Z,708
2017-06-20T06:58:52.740Z,708
2017-06-20T06:59:52.463Z,708
2017-06-20T07:00:52.811Z,712
2017-06-20T07:01:53.084Z,712
2017-06-20T07:02:52.249Z,712
2017-06-20T07:03:52.891Z,712
2017-06-20T07:04:52.923Z,712
2017-06-20T07:05:52.324Z,712
2017-06-20T07:06:53.181Z,708
2017-06-20T07:07:53.007Z,708
2017-06-20T07:08:53.042Z,712
2017-06-20T07:09:53.072Z,712
2017-06-20T07:10:53.101Z,712
2017-06-20T07:11:53.062Z,712
2017-06-20T07:12:52.851Z,712
2017-06-20T07:13:53.195Z,712
2017-06-20T07:14:52.913Z,708
2017-06-20T07:15:52.940Z,716
2017-06-20T07:16:53.220Z,716
2017-06-20T07:17:52.993Z,724
2017-06-20T07:18:53.343Z,720
2017-06-20T07:19:53.050Z,724
2017-06-20T07:20:53.119Z,724
2017-06-20T07:21:53.058Z,724
2017-06-20T07:22:53.527Z,732
2017-06-20T07:23:52.614Z,732
2017-06-20T07:24:53.519Z,736
2017-06-20T07:25:53.244Z,744
2017-06-20T07:26:53.201Z,744
2017-06-20T07:27:53.610Z,748
2017-06-20T07:28:53.645Z,752
2017-06-20T07:29:53.672Z,756
2017-06-20T07:30:53.073Z,756
2017-06-20T07:31:53.358Z,760
2017-06-20T07:32:53.767Z,768
2017-06-20T07:33:53.801Z,772
2017-06-20T07:34:52.885Z,772
2017-06-20T07:35:53.846Z,772
2017-06-20T07:36:53.514Z,772
2017-06-20T07:37:53.927Z,776
2017-06-20T07:38:53.955Z,780
2017-06-20T07:39:53.648Z,780
2017-06-20T07:40:54.021Z,784
2017-06-20T07:41:53.916Z,796
2017-06-20T07:42:54.063Z,792
2017-06-20T07:43:54.097Z,796
2017-06-20T07:44:53.808Z,804
2017-06-20T07:45:53.845Z,808
2017-06-20T07:46:53.554Z,816
2017-06-20T07:47:53.584Z,816
2017-06-20T07:48:53.923Z,820
2017-06-20T07:49:54.269Z,824
2017-06-20T07:50:54.302Z,824
2017-06-20T07:51:54.336Z,828
2017-06-20T07:52:54.358Z,836
2017-06-20T07:53:54.381Z,840
2017-06-20T07:54:54.425Z,848
2017-06-20T07:55:54.443Z,852
2017-06-20T07:56:54.167Z,856
2017-06-20T07:57:54.448Z,868
2017-06-20T07:58:54.540Z,872
2017-06-20T07:59:54.565Z,884
2017-06-20T08:00:54.606Z,896
2017-06-20T08:01:54.626Z,900
2017-06-20T08:02:54.598Z,908
2017-06-20T08:03:54.378Z,912
2017-06-20T08:04:54.717Z,916
2017-06-20T08:05:54.754Z,916
2017-06-20T08:06:54.462Z,916
2017-06-20T08:07:55.056Z,916
2017-06-20T08:08:54.835Z,916
2017-06-20T08:09:54.859Z,920
2017-06-20T08:10:54.891Z,920
2017-06-20T08:11:54.299Z,920
2017-06-20T08:12:54.580Z,924
2017-06-20T08:13:54.669Z,924
2017-06-20T08:14:54.709Z,928
2017-06-20T08:15:54.729Z,928
2017-06-20T08:16:54.767Z,928
2017-06-20T08:17:55.050Z,928
2017-06-20T08:18:55.141Z,936
2017-06-20T08:19:54.858Z,936
2017-06-20T08:20:54.887Z,944
2017-06-20T08:21:55.242Z,944
2017-06-20T08:22:55.199Z,952
2017-06-20T08:23:54.977Z,952
2017-06-20T08:24:55.014Z,956
2017-06-20T08:25:55.039Z,964
2017-06-20T08:26:54.441Z,972
2017-06-20T08:27:55.303Z,976
2017-06-20T08:28:55.132Z,980
2017-06-20T08:29:55.160Z,984
2017-06-20T08:30:55.550Z,984
2017-06-20T08:31:55.223Z,992
2017-06-20T08:32:55.829Z,996
2017-06-20T08:33:55.582Z,1000
2017-06-20T08:34:55.317Z,1008
2017-06-20T08:35:55.343Z,1008
2017-06-20T08:36:55.058Z,1016
2017-06-20T08:37:55.968Z,1020
2017-06-20T08:38:55.434Z,1032
2017-06-20T08:39:55.461Z,1036
2017-06-20T08:40:55.496Z,1044
2017-06-20T08:41:55.523Z,1052
2017-06-20T08:42:55.801Z,1056
2017-06-20T08:43:55.590Z,1068
2017-06-20T08:44:55.303Z,1080
2017-06-20T08:45:55.960Z,1088
2017-06-20T08:46:55.662Z,1096
2017-06-20T08:47:56.269Z,1100
2017-06-20T08:48:55.745Z,1104
2017-06-20T08:49:56.082Z,1108
2017-06-20T08:50:56.115Z,1112
2017-06-20T08:51:55.501Z,1116
2017-06-20T08:52:56.415Z,1108
2017-06-20T08:53:55.879Z,1112
2017-06-20T08:54:56.218Z,1112
2017-06-20T08:55:56.260Z,1112
2017-06-20T08:56:56.288Z,1112
2017-06-20T08:57:55.947Z,1116
2017-06-20T08:58:56.349Z,1116
2017-06-20T08:59:55.446Z,1120
2017-06-20T09:00:56.111Z,1116
2017-06-20T09:01:56.444Z,1116
2017-06-20T09:02:56.393Z,1120
2017-06-20T09:03:56.499Z,1120
2017-06-20T09:04:56.234Z,1116
2017-06-20T09:05:55.936Z,1120
2017-06-20T09:06:56.273Z,1120
2017-06-20T09:07:56.876Z,1128
2017-06-20T09:08:56.674Z,1128
2017-06-20T09:09:56.687Z,1128
2017-06-20T09:10:56.440Z,1132
2017-06-20T09:11:56.428Z,1136
2017-06-20T09:12:56.709Z,1140
2017-06-20T09:13:56.165Z,1140
2017-06-20T09:14:56.194Z,1144
2017-06-20T09:15:56.859Z,1148
2017-06-20T09:16:56.893Z,1152
2017-06-20T09:17:56.848Z,1160
2017-06-20T09:18:56.983Z,1164
2017-06-20T09:19:56.977Z,1164
2017-06-20T09:20:57.021Z,1168
2017-06-20T09:21:57.039Z,1172
2017-06-20T09:22:57.014Z,1176
2017-06-20T09:23:56.473Z,1180
2017-06-20T09:24:56.503Z,1188
2017-06-20T09:25:56.848Z,1196
2017-06-20T09:26:56.560Z,1200
2017-06-20T09:27:57.146Z,1204
2017-06-20T09:28:56.938Z,1212
2017-06-20T09:29:56.655Z,1224
2017-06-20T09:30:57.303Z,1240
2017-06-20T09:31:57.024Z,1252
2017-06-20T09:32:57.252Z,1256
2017-06-20T09:33:57.085Z,1252
2017-06-20T09:34:57.122Z,1252
2017-06-20T09:35:57.464Z,1252
2017-06-20T09:36:56.868Z,1256
2017-06-20T09:37:57.468Z,1256
2017-06-20T09:38:57.564Z,1260
2017-06-20T09:39:57.276Z,1264
2017-06-20T09:40:57.300Z,1272
2017-06-20T09:41:57.649Z,1288
2017-06-20T09:42:57.617Z,1304
2017-06-20T09:43:57.398Z,1312
2017-06-20T09:44:57.731Z,1320
2017-06-20T09:45:57.152Z,1332
2017-06-20T09:46:57.488Z,1336
2017-06-20T09:47:57.453Z,1336
2017-06-20T09:48:57.554Z,1336
2017-06-20T09:49:57.896Z,1340
2017-06-20T09:50:57.941Z,1340
2017-06-20T09:51:57.645Z,1336
2017-06-20T09:52:58.227Z,1336
2017-06-20T09:53:57.386Z,1348
2017-06-20T09:54:57.726Z,1368
2017-06-20T09:55:58.064Z,1384
2017-06-20T09:56:57.797Z,1392
2017-06-20T09:57:58.069Z,1396
2017-06-20T09:58:57.838Z,1384
2017-06-20T09:59:58.187Z,1384
2017-06-20T10:00:58.224Z,1400
2017-06-20T10:01:57.938Z,1420
2017-06-20T10:02:58.233Z,1432
2017-06-20T10:03:58.315Z,1448
2017-06-20T10:04:58.036Z,1468
2017-06-20T10:05:58.373Z,1500
2017-06-20T10:06:58.401Z,1528
2017-06-20T10:07:58.421Z,1548
2017-06-20T10:08:58.470Z,1568
2017-06-20T10:09:58.187Z,1592
2017-06-20T10:10:58.534Z,1616
2017-06-20T10:11:58.554Z,1624
2017-06-20T10:12:58.781Z,1624
2017-06-20T10:13:58.302Z,1608
2017-06-20T10:14:58.646Z,1600
2017-06-20T10:15:58.681Z,1608
2017-06-20T10:16:58.706Z,1616
2017-06-20T10:17:58.743Z,1596
2017-06-20T10:18:58.147Z,1616
2017-06-20T10:19:58.796Z,1632
2017-06-20T10:20:58.841Z,1664
2017-06-20T10:21:58.862Z,1680
2017-06-20T10:22:58.574Z,1692
2017-06-20T10:23:58.917Z,1696
2017-06-20T10:24:58.940Z,1700
2017-06-20T10:25:58.980Z,1708
2017-06-20T10:26:59.013Z,1728
2017-06-20T10:27:59.047Z,1760
2017-06-20T10:28:58.759Z,1780
2017-06-20T10:29:59.099Z,1788
2017-06-20T10:30:59.137Z,1784
2017-06-20T10:31:59.165Z,1788
2017-06-20T10:32:58.875Z,1800
2017-06-20T10:33:59.195Z,1820
2017-06-20T10:34:58.940Z,1832
2017-06-20T10:35:59.285Z,1844
2017-06-20T10:36:59.010Z,1848
2017-06-20T10:37:58.718Z,1852
2017-06-20T10:38:59.627Z,1868
2017-06-20T10:39:59.436Z,1900
2017-06-20T10:40:59.128Z,1924
2017-06-20T10:41:59.463Z,1936
2017-06-20T10:42:59.187Z,1960
2017-06-20T10:43:59.463Z,2004
2017-06-20T10:44:59.551Z,2036
2017-06-20T10:45:59.269Z,2072
2017-06-20T10:46:59.607Z,2120
2017-06-20T10:47:59.330Z,2160
2017-06-20T10:48:59.615Z,2188
2017-06-20T10:49:59.711Z,2200
2017-06-20T10:50:59.745Z,2184
2017-06-20T10:51:59.777Z,2164
2017-06-20T10:52:59.495Z,2164
2017-06-20T10:54:00.083Z,2212
2017-06-20T10:54:59.556Z,2272
2017-06-20T10:55:59.269Z,2316
2017-06-20T10:56:59.926Z,2352
2017-06-20T10:57:59.646Z,2372
2017-06-20T10:59:00.250Z,2376
2017-06-20T11:00:00.015Z,2448
2017-06-20T11:00:59.733Z,2512
2017-06-20T11:01:59.765Z,2516
2017-06-20T11:03:00.102Z,2532
2017-06-20T11:04:00.083Z,2556
2017-06-20T11:05:00.172Z,2600
2017-06-20T11:05:59.888Z,2612
2017-06-20T11:06:59.917Z,2620
2017-06-20T11:07:59.955Z,2612
2017-06-20T11:09:00.229Z,2572
2017-06-20T11:10:00.360Z,2536
2017-06-20T11:11:00.353Z,2568
2017-06-20T11:11:59.750Z,2564
2017-06-20T11:13:00.415Z,2528
2017-06-20T11:14:00.379Z,2512
2017-06-20T11:15:00.480Z,2524
2017-06-20T11:16:00.193Z,2556
2017-06-20T11:17:00.221Z,2604
2017-06-20T11:18:00.565Z,2648
2017-06-20T11:19:00.532Z,2712
2017-06-20T11:20:00.631Z,2792
2017-06-20T11:21:00.653Z,2872
2017-06-20T11:22:00.061Z,2936
2017-06-20T11:23:00.723Z,3016
2017-06-20T11:24:01.007Z,3116
2017-06-20T11:25:00.468Z,3180
2017-06-20T11:26:00.497Z,3224
2017-06-20T11:27:00.526Z,3268
2017-06-20T11:28:00.554Z,3320
2017-06-20T11:29:01.147Z,3412
2017-06-20T11:30:00.925Z,3520
2017-06-20T11:31:00.651Z,3604
2017-06-20T11:32:00.673Z,3700
2017-06-20T11:33:00.714Z,3836
2017-06-20T11:34:00.987Z,4012
2017-06-20T11:35:01.080Z,4832
2017-06-20T11:36:01.106Z,10632
2017-06-20T11:37:01.162Z,18868
2017-06-20T11:38:00.547Z,22048
2017-06-20T11:39:01.456Z,22784
2017-06-20T11:40:01.232Z,23328
2017-06-20T11:41:01.269Z,24128
2017-06-20T11:42:00.678Z,25152
2017-06-20T11:43:01.018Z,25504
2017-06-20T11:44:01.308Z,25248
2017-06-20T11:45:01.399Z,25408
2017-06-20T11:46:01.120Z,26752
2017-06-20T11:47:01.470Z,27872
2017-06-20T11:48:01.498Z,28800
2017-06-20T11:49:01.776Z,28928
2017-06-20T11:50:01.549Z,30048
2017-06-20T11:51:01.277Z,32768
2017-06-20T11:52:01.309Z,35712
2017-06-20T11:53:01.343Z,39264
2017-06-20T11:54:01.566Z,45408
2017-06-20T11:55:01.422Z,51712
2017-06-20T11:56:01.749Z,55104
2017-06-20T11:57:01.472Z,53536
2017-06-20T11:58:01.843Z,48416
2017-06-20T11:59:02.108Z,43168
2017-06-20T12:00:01.265Z,40768
2017-06-20T12:01:01.606Z,39456
2017-06-20T12:02:01.323Z,39936
2017-06-20T12:03:01.983Z,46496
2017-06-20T12:04:01.967Z,65984
2017-06-20T12:05:01.433Z,90176
2017-06-20T12:06:01.778Z,94688
2017-06-20T12:07:01.838Z,95008
2017-06-20T12:08:01.847Z,94784
2017-06-20T12:09:01.811Z,94304
2017-06-20T12:10:01.917Z,87648
2017-06-20T12:11:01.949Z,75328
2017-06-20T12:12:01.679Z,61760
2017-06-20T12:13:02.332Z,55392
2017-06-20T12:14:02.618Z,53600
2017-06-20T12:15:02.085Z,52992
2017-06-20T12:16:02.126Z,54080
2017-06-20T12:17:02.155Z,53728
2017-06-20T12:18:02.195Z,51872
2017-06-20T12:19:02.785Z,47712
2017-06-20T12:20:01.953Z,44896
2017-06-20T12:21:02.328Z,45152
2017-06-20T12:22:02.347Z,48928
2017-06-20T12:23:02.685Z,54720
2017-06-20T12:24:02.653Z,58592
2017-06-20T12:25:02.753Z,57472
2017-06-20T12:26:02.782Z,55328
2017-06-20T12:27:02.841Z,50240
2017-06-20T12:28:02.860Z,44096
2017-06-20T12:29:03.143Z,40928
2017-06-20T12:30:02.926Z,41504
2017-06-20T12:31:02.970Z,45248
2017-06-20T12:32:02.688Z,55040
2017-06-20T12:33:02.724Z,68800
2017-06-20T12:34:03.325Z,79360
2017-06-20T12:35:02.796Z,70496
2017-06-20T12:36:03.150Z,52608
2017-06-20T12:37:02.864Z,45024
2017-06-20T12:38:02.597Z,49280
2017-06-20T12:39:03.191Z,57984
2017-06-20T12:40:02.980Z,70112
2017-06-20T12:41:03.027Z,75008
2017-06-20T12:42:03.349Z,77376
2017-06-20T12:43:02.776Z,74144
2017-06-20T12:44:03.680Z,76512
2017-06-20T12:45:03.466Z,77856
2017-06-20T12:46:03.506Z,78784
2017-06-20T12:47:03.235Z,78368
2017-06-20T12:48:02.956Z,75168
2017-06-20T12:49:03.508Z,74496
2017-06-20T12:50:03.648Z,75232
2017-06-20T12:51:03.682Z,74592
2017-06-20T12:52:03.728Z,74912
2017-06-20T12:53:03.759Z,73440
2017-06-20T12:54:03.417Z,69856
2017-06-20T12:55:03.833Z,65856
2017-06-20T12:56:03.551Z,68096
2017-06-20T12:57:03.897Z,52896
2017-06-20T12:58:03.935Z,73792
2017-06-20T12:59:03.861Z,72992
2017-06-20T13:00:03.396Z,71360
2017-06-20T13:01:04.054Z,73152
2017-06-20T13:02:03.774Z,76736
2017-06-20T13:03:03.813Z,79008
2017-06-20T13:04:04.416Z,77632
2017-06-20T13:05:03.879Z,76256
2017-06-20T13:06:03.922Z,74784
2017-06-20T13:07:04.267Z,73504
2017-06-20T13:08:03.987Z,20544
2017-06-20T13:09:04.292Z,72192
2017-06-20T13:10:04.090Z,14484
2017-06-20T13:11:04.400Z,72352
2017-06-20T13:12:04.138Z,71296
2017-06-20T13:13:04.484Z,71296
2017-06-20T13:14:04.778Z,69344
2017-06-20T13:15:04.241Z,68928
2017-06-20T13:16:03.967Z,68256
2017-06-20T13:17:04.320Z,68416
2017-06-20T13:18:04.356Z,66400
2017-06-20T13:19:04.327Z,65088
2017-06-20T13:20:04.734Z,66368
2017-06-20T13:21:04.476Z,65920
2017-06-20T13:22:04.508Z,63840
2017-06-20T13:23:04.842Z,64768
2017-06-20T13:24:04.507Z,63200
2017-06-20T13:25:04.604Z,62528
2017-06-20T13:26:04.964Z,65344
2017-06-20T13:27:04.672Z,66176
2017-06-20T13:28:04.716Z,68224
2017-06-20T13:29:05.325Z,70848
2017-06-20T13:30:05.090Z,68288
2017-06-20T13:31:04.822Z,71680
2017-06-20T13:32:04.551Z,72800
2017-06-20T13:33:04.895Z,71456
2017-06-20T13:34:05.172Z,70112
2017-06-20T13:35:05.279Z,69216
2017-06-20T13:36:05.310Z,70208
2017-06-20T13:37:05.036Z,72832
2017-06-20T13:38:05.071Z,72640
2017-06-20T13:39:05.671Z,74432
2017-06-20T13:40:05.139Z,77184
2017-06-20T13:41:04.863Z,77632
2017-06-20T13:42:04.907Z,75392
2017-06-20T13:43:05.564Z,74368
2017-06-20T13:44:05.852Z,73440
2017-06-20T13:45:05.633Z,66880
2017-06-20T13:46:05.679Z,62048